createdAt,value
2022-11-03T00:00:27.136Z,2.13
2022-11-03T00:02:53.443Z,1.95
2022-11-03T00:05:38.553Z,2.15
2022-11-03T00:08:07.898Z,1.88
2022-11-03T00:10:34.204Z,2.83
2022-11-03T00:13:00.422Z,2.28
2022-11-03T00:15:26.675Z,2.42
2022-11-03T00:17:52.958Z,2.67
2022-11-03T00:20:19.267Z,2.38
2022-11-03T00:22:45.525Z,2.03
2022-11-03T00:25:11.800Z,2.15
2022-11-03T00:27:38.129Z,2.65
2022-11-03T00:30:04.563Z,2.00
2022-11-03T00:32:30.827Z,2.20
2022-11-03T00:34:57.134Z,2.10
2022-11-03T00:37:23.450Z,2.55
2022-11-03T00:39:49.775Z,2.60
2022-11-03T00:42:16.080Z,2.35
2022-11-03T00:44:42.334Z,2.03
2022-11-03T00:47:08.647Z,2.00
2022-11-03T00:49:34.968Z,1.88
2022-11-03T00:52:01.282Z,2.80
2022-11-03T00:54:27.535Z,2.10
2022-11-03T00:56:53.828Z,2.03
2022-11-03T00:59:20.068Z,1.95
2022-11-03T01:01:47.814Z,2.05
2022-11-03T01:04:33.859Z,2.55
2022-11-03T01:07:00.606Z,2.40
2022-11-03T01:09:29.672Z,2.17
2022-11-03T01:11:55.957Z,1.63
2022-11-03T01:14:22.876Z,2.78
2022-11-03T01:16:49.202Z,1.63
2022-11-03T01:19:15.698Z,2.08
2022-11-03T01:21:45.972Z,2.30
2022-11-03T01:24:12.248Z,2.35
2022-11-03T01:26:38.554Z,2.28
2022-11-03T01:29:05.616Z,1.88
2022-11-03T01:31:44.971Z,1.83
2022-11-03T01:34:18.813Z,2.10
2022-11-03T01:36:45.303Z,1.65
2022-11-03T01:39:15.873Z,2.40
2022-11-03T01:41:42.938Z,2.13
2022-11-03T01:44:09.218Z,1.95
2022-11-03T01:46:43.963Z,2.30
2022-11-03T01:49:16.399Z,2.30
2022-11-03T01:51:43.890Z,2.92
2022-11-03T01:54:12.209Z,2.20
2022-11-03T01:56:40.788Z,1.98
2022-11-03T01:59:07.529Z,2.95
2022-11-03T02:01:34.186Z,2.05
2022-11-03T02:04:03.518Z,2.55
2022-11-03T02:06:29.908Z,2.10
2022-11-03T02:09:08.245Z,2.70
2022-11-03T02:11:54.274Z,2.38
2022-11-03T02:14:20.856Z,1.50
2022-11-03T02:16:49.958Z,2.13
2022-11-03T02:19:26.887Z,1.85
2022-11-03T02:21:59.655Z,1.95
2022-11-03T02:24:53.817Z,1.88
2022-11-03T02:27:21.176Z,1.67
2022-11-03T02:29:47.703Z,2.03
2022-11-03T02:32:26.187Z,2.25
2022-11-03T02:35:01.854Z,1.98
2022-11-03T02:37:31.469Z,1.90
2022-11-03T02:40:01.134Z,1.98
2022-11-03T02:42:29.781Z,1.88
2022-11-03T02:44:58.405Z,1.98
2022-11-03T02:47:25.785Z,1.73
2022-11-03T02:52:33.577Z,1.85
2022-11-03T02:55:00.559Z,2.00
2022-11-03T02:57:29.353Z,2.60
2022-11-03T03:00:01.807Z,1.90
2022-11-03T03:02:33.243Z,2.42
2022-11-03T03:05:02.131Z,2.00
2022-11-03T03:07:37.571Z,2.22
2022-11-03T03:10:09.638Z,2.05
2022-11-03T03:12:37.827Z,1.80
2022-11-03T03:15:06.202Z,1.85
2022-11-03T03:17:36.947Z,2.05
2022-11-03T03:20:18.548Z,2.53
2022-11-03T03:22:51.964Z,2.30
2022-11-03T03:25:23.836Z,2.05
2022-11-03T03:27:52.883Z,2.60
2022-11-03T03:30:19.529Z,2.05
2022-11-03T03:32:47.453Z,2.03
2022-11-03T03:35:24.465Z,2.22
2022-11-03T03:37:53.264Z,2.00
2022-11-03T03:40:25.945Z,2.13
2022-11-03T03:42:53.017Z,2.42
2022-11-03T03:45:19.660Z,1.92
2022-11-03T03:47:49.934Z,2.47
2022-11-03T03:50:17.146Z,2.33
2022-11-03T03:52:43.460Z,2.10
2022-11-03T03:55:16.250Z,1.83
2022-11-03T03:57:43.087Z,2.10
2022-11-03T04:00:11.142Z,1.90
2022-11-03T04:02:37.595Z,1.58
2022-11-03T04:05:04.094Z,2.55
2022-11-03T04:07:48.797Z,2.25
2022-11-03T04:10:15.850Z,2.90
2022-11-03T04:13:01.801Z,2.30
2022-11-03T04:15:47.066Z,2.25
2022-11-03T04:18:31.851Z,2.25
2022-11-03T04:21:16.701Z,2.30
2022-11-03T04:23:43.066Z,2.22
2022-11-03T04:26:12.302Z,2.70
2022-11-03T04:28:38.639Z,2.03
2022-11-03T04:31:21.703Z,2.92
2022-11-03T04:33:48.146Z,2.17
2022-11-03T04:36:17.451Z,2.08
2022-11-03T04:38:44.141Z,2.65
2022-11-03T04:41:16.136Z,2.10
2022-11-03T04:43:42.579Z,2.10
2022-11-03T04:46:13.319Z,1.75
2022-11-03T04:48:39.655Z,2.10
2022-11-03T04:51:13.247Z,2.20
2022-11-03T04:53:40.486Z,2.15
2022-11-03T04:56:13.825Z,2.10
2022-11-03T04:58:40.097Z,1.92
2022-11-03T05:01:09.800Z,2.10
2022-11-03T05:03:37.189Z,2.30
2022-11-03T05:06:15.227Z,2.05
2022-11-03T05:08:42.648Z,1.90
2022-11-03T05:11:14.356Z,1.92
2022-11-03T05:13:40.988Z,2.30
2022-11-03T05:16:07.486Z,2.28
2022-11-03T05:18:35.450Z,2.22
2022-11-03T05:21:03.550Z,2.83
2022-11-03T05:23:31.159Z,2.17
2022-11-03T05:25:58.588Z,2.42
2022-11-03T05:28:26.941Z,2.15
2022-11-03T05:30:53.398Z,2.70
2022-11-03T05:33:21.981Z,2.08
2022-11-03T05:35:48.367Z,2.00
2022-11-03T05:38:15.245Z,2.20
2022-11-03T05:40:41.754Z,2.30
2022-11-03T05:43:12.147Z,2.88
2022-11-03T05:45:38.713Z,2.20
2022-11-03T05:48:24.863Z,2.33
2022-11-03T05:50:51.486Z,2.35
2022-11-03T05:53:29.221Z,2.40
2022-11-03T05:55:57.164Z,1.98
2022-11-03T05:58:35.671Z,2.05
2022-11-03T06:01:06.890Z,2.22
2022-11-03T06:03:36.325Z,2.05
2022-11-03T06:06:02.721Z,2.30
2022-11-03T06:08:35.165Z,2.70
2022-11-03T06:11:03.161Z,3.40
2022-11-03T06:13:37.644Z,2.17
2022-11-03T06:16:24.740Z,2.70
2022-11-03T06:18:51.124Z,2.30
2022-11-03T06:21:21.581Z,2.45
2022-11-03T06:23:48.233Z,2.13
2022-11-03T06:26:17.780Z,2.15
2022-11-03T06:28:45.111Z,1.88
2022-11-03T06:31:20.284Z,2.40
2022-11-03T06:33:50.030Z,2.20
2022-11-03T06:36:18.449Z,1.90
2022-11-03T06:38:48.925Z,1.90
2022-11-03T06:41:20.694Z,2.63
2022-11-03T06:43:46.970Z,2.10
2022-11-03T06:46:33.506Z,2.38
2022-11-03T06:49:01.001Z,2.17
2022-11-03T06:51:28.047Z,1.90
2022-11-03T06:53:55.256Z,2.05
2022-11-03T06:56:22.820Z,3.00
2022-11-03T06:58:50.016Z,2.58
2022-11-03T07:01:18.713Z,2.25
2022-11-03T07:03:45.725Z,3.30
2022-11-03T07:06:12.072Z,2.63
2022-11-03T07:08:41.384Z,2.28
2022-11-03T07:11:24.894Z,2.85
2022-11-03T07:14:09.945Z,2.00
2022-11-03T07:16:44.374Z,2.05
2022-11-03T07:19:16.582Z,2.80
2022-11-03T07:21:50.401Z,2.40
2022-11-03T07:24:23.143Z,2.65
2022-11-03T07:26:53.927Z,3.40
2022-11-03T07:31:47.039Z,3.70
2022-11-03T07:34:15.375Z,4.00
2022-11-03T07:36:43.697Z,3.00
2022-11-03T07:39:13.511Z,4.07
2022-11-03T07:41:39.976Z,2.67
2022-11-03T07:44:13.480Z,3.42
2022-11-03T07:46:39.842Z,2.50
2022-11-03T07:49:11.280Z,2.75
2022-11-03T07:51:38.551Z,2.50
2022-11-03T07:54:24.807Z,2.17
2022-11-03T07:56:55.773Z,2.20
2022-11-03T08:01:55.618Z,2.80
2022-11-03T08:04:24.570Z,3.08
2022-11-03T08:06:51.424Z,3.13
2022-11-03T08:09:18.350Z,3.67
2022-11-03T08:11:45.020Z,2.67
2022-11-03T08:14:11.428Z,2.22
2022-11-03T08:16:37.997Z,3.00
2022-11-03T08:19:04.792Z,2.80
2022-11-03T08:21:31.145Z,3.22
2022-11-03T08:23:57.466Z,2.80
2022-11-03T08:26:23.729Z,3.63
2022-11-03T08:28:49.997Z,3.40
2022-11-03T08:31:16.288Z,3.90
2022-11-03T08:33:44.006Z,2.85
2022-11-03T08:36:11.264Z,2.60
2022-11-03T08:38:37.532Z,2.90
2022-11-03T08:41:04.079Z,2.50
2022-11-03T08:43:30.499Z,2.03
2022-11-03T08:45:59.523Z,2.75
2022-11-03T08:48:29.533Z,2.63
2022-11-03T08:50:56.244Z,2.10
2022-11-03T08:53:26.478Z,2.72
2022-11-03T08:55:53.383Z,2.85
2022-11-03T08:58:20.371Z,2.85
2022-11-03T09:00:46.955Z,2.67
2022-11-03T09:03:13.302Z,3.20
2022-11-03T09:05:40.083Z,4.00
2022-11-03T09:10:53.280Z,2.45
2022-11-03T09:13:19.611Z,2.30
2022-11-03T09:15:45.897Z,3.10
2022-11-03T09:18:12.176Z,2.75
2022-11-03T09:20:38.499Z,2.60
2022-11-03T09:23:05.032Z,1.85
2022-11-03T09:25:31.511Z,2.85
2022-11-03T09:27:57.768Z,2.78
2022-11-03T09:30:24.158Z,2.53
2022-11-03T09:32:50.653Z,2.40
2022-11-03T09:35:17.054Z,3.58
2022-11-03T09:37:43.677Z,2.38
2022-11-03T09:40:10.887Z,2.60
2022-11-03T09:42:37.760Z,2.72
2022-11-03T09:45:04.789Z,2.45
2022-11-03T09:47:33.417Z,2.00
2022-11-03T09:49:59.869Z,2.20
2022-11-03T09:52:26.213Z,2.03
2022-11-03T09:54:54.282Z,2.13
2022-11-03T09:57:21.373Z,2.78
2022-11-03T09:59:48.804Z,2.10
2022-11-03T10:02:22.029Z,1.80
2022-11-03T10:04:48.589Z,2.17
2022-11-03T10:07:14.968Z,2.10
2022-11-03T10:09:44.088Z,2.10
2022-11-03T10:12:10.498Z,1.88
2022-11-03T10:14:36.836Z,2.17
2022-11-03T10:17:03.273Z,2.33
2022-11-03T10:19:30.247Z,2.65
2022-11-03T10:21:56.725Z,1.98
2022-11-03T10:24:23.117Z,2.00
2022-11-03T10:26:50.491Z,2.90
2022-11-03T10:31:52.418Z,2.10
2022-11-03T10:34:26.436Z,2.40
2022-11-03T10:37:12.554Z,2.42
2022-11-03T10:39:38.939Z,1.92
2022-11-03T10:42:05.377Z,3.03
2022-11-03T10:44:31.866Z,2.05
2022-11-03T10:47:01.108Z,2.40
2022-11-03T10:49:28.777Z,2.33
2022-11-03T10:51:57.321Z,2.13
2022-11-03T10:54:24.159Z,2.63
2022-11-03T10:56:51.741Z,3.00
2022-11-03T10:59:19.578Z,1.45
2022-11-03T11:01:46.005Z,2.30
2022-11-03T11:04:15.539Z,2.17
2022-11-03T11:06:41.893Z,1.98
2022-11-03T11:09:10.037Z,2.00
2022-11-03T11:11:36.331Z,2.30
2022-11-03T11:14:21.879Z,1.83
2022-11-03T11:16:54.400Z,1.70
2022-11-03T11:19:22.404Z,2.35
2022-11-03T11:21:49.548Z,2.35
2022-11-03T11:24:36.115Z,1.63
2022-11-03T11:27:02.415Z,1.60
2022-11-03T11:29:35.980Z,1.98
2022-11-03T11:32:22.314Z,2.00
2022-11-03T11:34:48.647Z,1.88
2022-11-03T11:37:14.952Z,2.42
2022-11-03T11:39:44.246Z,2.03
2022-11-03T11:42:10.687Z,2.22
2022-11-03T11:44:43.163Z,1.90
2022-11-03T11:47:18.631Z,2.67
2022-11-03T11:49:45.035Z,2.00
2022-11-03T11:52:15.494Z,2.00
2022-11-03T11:54:45.363Z,1.83
2022-11-03T11:57:19.258Z,1.83
2022-11-03T11:59:46.494Z,2.15
2022-11-03T12:02:18.383Z,1.60
2022-11-03T12:04:47.867Z,1.98
2022-11-03T12:07:14.193Z,1.98
2022-11-03T12:09:41.797Z,1.65
2022-11-03T12:12:08.917Z,1.88
2022-11-03T12:14:36.564Z,1.83
2022-11-03T12:17:18.241Z,1.90
2022-11-03T12:19:45.654Z,1.83
2022-11-03T12:22:13.126Z,2.10
2022-11-03T12:24:48.098Z,2.55
2022-11-03T12:27:19.293Z,2.10
2022-11-03T12:29:45.549Z,1.73
2022-11-03T12:32:25.873Z,1.83
2022-11-03T12:34:59.288Z,1.70
2022-11-03T12:37:25.768Z,1.70
2022-11-03T12:39:52.049Z,1.38
2022-11-03T12:42:20.051Z,1.55
2022-11-03T12:44:46.696Z,1.90
2022-11-03T12:47:14.390Z,2.08
2022-11-03T12:49:40.668Z,1.65
2022-11-03T12:52:08.594Z,2.20
2022-11-03T12:54:35.327Z,1.83
2022-11-03T12:57:01.711Z,2.10
2022-11-03T12:59:28.309Z,1.42
2022-11-03T13:01:54.729Z,1.90
2022-11-03T13:04:21.112Z,1.80
2022-11-03T13:06:47.478Z,1.80
2022-11-03T13:09:13.728Z,1.25
2022-11-03T13:11:58.669Z,1.60
2022-11-03T13:14:26.471Z,1.73
2022-11-03T13:16:52.872Z,1.60
2022-11-03T13:19:19.228Z,1.60
2022-11-03T13:21:45.551Z,1.63
2022-11-03T13:24:11.813Z,1.60
2022-11-03T13:26:38.338Z,1.77
2022-11-03T13:29:04.600Z,2.15
2022-11-03T13:31:31.564Z,1.70
2022-11-03T13:33:57.812Z,1.83
2022-11-03T13:36:45.273Z,1.52
2022-11-03T13:39:12.635Z,1.80
2022-11-03T13:41:39.143Z,1.60
2022-11-03T13:44:05.492Z,1.88
2022-11-03T13:46:31.744Z,2.05
2022-11-03T13:51:44.415Z,1.90
2022-11-03T13:59:44.612Z,1.80
2022-11-03T14:04:58.662Z,1.92
2022-11-03T14:07:24.957Z,2.00
2022-11-03T14:09:51.215Z,1.92
2022-11-03T14:12:32.799Z,2.05
2022-11-03T14:14:59.742Z,1.70
2022-11-03T14:17:26.252Z,1.58
2022-11-03T14:19:56.513Z,1.77
2022-11-03T14:22:25.541Z,1.42
2022-11-03T14:24:51.879Z,2.00
2022-11-03T14:27:18.998Z,2.10
2022-11-03T14:29:45.547Z,1.75
2022-11-03T14:32:12.248Z,2.13
2022-11-03T14:34:38.791Z,1.40
2022-11-03T14:37:05.806Z,1.80
2022-11-03T14:39:32.250Z,2.03
2022-11-03T14:42:04.693Z,1.55
2022-11-03T14:44:35.795Z,1.65
2022-11-03T14:47:03.150Z,1.90
2022-11-03T14:49:29.850Z,2.15
2022-11-03T14:51:59.732Z,1.65
2022-11-03T14:54:26.156Z,2.22
2022-11-03T14:56:52.515Z,2.10
2022-11-03T14:59:18.818Z,2.25
2022-11-03T15:01:45.863Z,2.60
2022-11-03T15:04:13.138Z,2.45
2022-11-03T15:06:40.235Z,2.10
2022-11-03T15:11:36.129Z,2.47
2022-11-03T15:14:02.698Z,2.95
2022-11-03T15:16:53.137Z,2.30
2022-11-03T15:19:19.927Z,2.15
2022-11-03T15:21:46.446Z,2.22
2022-11-03T15:27:11.994Z,2.40
2022-11-03T15:29:38.308Z,2.00
2022-11-03T15:32:04.756Z,2.10
2022-11-03T15:34:31.043Z,2.30
2022-11-03T15:36:57.309Z,2.67
2022-11-03T15:39:23.597Z,2.55
2022-11-03T15:41:50.008Z,3.33
2022-11-03T15:44:16.249Z,2.63
2022-11-03T15:46:42.537Z,2.55
2022-11-03T15:49:08.813Z,2.38
2022-11-03T15:51:35.084Z,5.63
2022-11-03T15:54:02.375Z,2.85
2022-11-03T15:56:29.539Z,2.58
2022-11-03T15:58:56.283Z,4.00
2022-11-03T16:01:22.700Z,3.85
2022-11-03T16:03:49.181Z,3.33
2022-11-03T16:06:15.610Z,3.28
2022-11-03T16:08:41.884Z,3.28
2022-11-03T16:11:09.165Z,3.05
2022-11-03T16:13:38.102Z,2.65
2022-11-03T16:16:05.053Z,1.92
2022-11-03T16:18:31.495Z,2.30
2022-11-03T16:20:57.794Z,2.85
2022-11-03T16:23:24.250Z,2.17
2022-11-03T16:25:52.077Z,2.60
2022-11-03T16:28:19.447Z,2.40
2022-11-03T16:30:49.798Z,2.80
2022-11-03T16:33:20.245Z,2.95
2022-11-03T16:35:46.742Z,2.72
2022-11-03T16:38:17.876Z,2.75
2022-11-03T16:40:44.288Z,2.80
2022-11-03T16:43:10.906Z,3.00
2022-11-03T16:45:38.216Z,2.50
2022-11-03T16:48:06.479Z,3.60
2022-11-03T16:50:33.152Z,5.63
2022-11-03T16:52:59.575Z,4.03
2022-11-03T16:55:25.873Z,6.35
2022-11-03T16:57:52.284Z,5.53
2022-11-03T17:00:19.804Z,4.90
2022-11-03T17:02:46.693Z,5.97
2022-11-03T17:05:13.409Z,5.70
2022-11-03T17:07:39.752Z,6.50
2022-11-03T17:10:07.364Z,4.43
2022-11-03T17:12:33.670Z,3.72
2022-11-03T17:14:59.919Z,4.13
2022-11-03T17:17:26.221Z,6.53
2022-11-03T17:19:52.540Z,6.10
2022-11-03T17:22:20.184Z,5.15
2022-11-03T17:24:46.801Z,5.20
2022-11-03T17:27:14.979Z,5.20
2022-11-03T17:29:45.846Z,5.28
2022-11-03T17:32:17.855Z,4.72
2022-11-03T17:34:44.139Z,4.90
2022-11-03T17:37:10.482Z,5.50
2022-11-03T17:39:38.998Z,7.05
2022-11-03T17:42:16.043Z,5.43
2022-11-03T17:44:43.450Z,5.82
2022-11-03T17:47:09.703Z,7.43
2022-11-03T17:49:36.052Z,9.73
2022-11-03T17:52:02.410Z,6.63
2022-11-03T17:54:31.610Z,5.10
2022-11-03T17:56:59.111Z,9.25
2022-11-03T17:59:25.881Z,6.65
2022-11-03T18:01:55.838Z,5.05
2022-11-03T18:04:22.796Z,7.75
2022-11-03T18:06:49.852Z,4.95
2022-11-03T18:09:16.457Z,5.68
2022-11-03T18:12:01.485Z,5.55
2022-11-03T18:14:28.910Z,10.48
2022-11-03T18:16:55.681Z,7.57
2022-11-03T18:19:22.060Z,6.30
2022-11-03T18:21:48.367Z,8.80
2022-11-03T18:24:15.758Z,13.10
2022-11-03T18:26:42.539Z,10.45
2022-11-03T18:29:09.189Z,9.70
2022-11-03T18:31:37.521Z,6.22
2022-11-03T18:34:05.424Z,8.43
2022-11-03T18:36:32.393Z,10.38
2022-11-03T18:38:59.380Z,7.30
2022-11-03T18:41:41.219Z,8.73
2022-11-03T18:44:16.619Z,8.32
2022-11-03T18:46:43.041Z,6.97
2022-11-03T18:49:09.468Z,8.13
2022-11-03T18:51:35.852Z,8.27
2022-11-03T18:54:02.145Z,12.43
2022-11-03T18:56:29.386Z,12.80
2022-11-03T18:58:57.905Z,13.98
2022-11-03T19:01:27.721Z,8.82
2022-11-03T19:03:54.401Z,10.53
2022-11-03T19:06:20.755Z,8.05
2022-11-03T19:08:47.537Z,7.70
2022-11-03T19:11:14.260Z,10.18
2022-11-03T19:13:41.698Z,7.30
2022-11-03T19:16:13.464Z,7.50
2022-11-03T19:18:40.444Z,8.30
2022-11-03T19:21:20.797Z,7.75
2022-11-03T19:23:48.264Z,8.00
2022-11-03T19:26:27.121Z,7.53
2022-11-03T19:28:59.451Z,6.60
2022-11-03T19:31:30.152Z,7.57
2022-11-03T19:33:57.624Z,7.25
2022-11-03T19:36:24.605Z,7.22
2022-11-03T19:38:50.917Z,7.88
2022-11-03T19:41:35.954Z,6.97
2022-11-03T19:44:02.863Z,7.13
2022-11-03T19:46:29.296Z,7.32
2022-11-03T19:48:56.483Z,6.80
2022-11-03T19:51:23.398Z,8.07
2022-11-03T19:53:50.008Z,7.72
2022-11-03T19:56:16.564Z,7.07
2022-11-03T19:58:43.086Z,7.05
2022-11-03T20:01:09.445Z,6.15
2022-11-03T20:03:36.350Z,6.22
2022-11-03T20:06:02.912Z,6.95
2022-11-03T20:08:30.465Z,6.38
2022-11-03T20:10:56.761Z,6.43
2022-11-03T20:13:24.488Z,6.18
2022-11-03T20:15:51.859Z,6.30
2022-11-03T20:18:19.909Z,6.60
2022-11-03T20:20:48.138Z,6.38
2022-11-03T20:23:26.367Z,5.72
2022-11-03T20:25:52.902Z,5.82
2022-11-03T20:28:20.784Z,5.50
2022-11-03T20:30:47.229Z,5.43
2022-11-03T20:33:15.480Z,5.72
2022-11-03T20:35:42.298Z,5.30
2022-11-03T20:38:10.809Z,6.45
2022-11-03T20:40:37.339Z,6.10
2022-11-03T20:43:04.204Z,5.75
2022-11-03T20:45:30.651Z,6.80
2022-11-03T20:47:56.947Z,6.53
2022-11-03T20:50:24.043Z,7.28
2022-11-03T20:52:50.569Z,6.55
2022-11-03T20:55:18.082Z,7.57
2022-11-03T20:57:44.661Z,6.47
2022-11-03T21:00:14.386Z,7.32
2022-11-03T21:02:41.218Z,7.60
2022-11-03T21:05:18.492Z,8.45
2022-11-03T21:07:44.786Z,8.57
2022-11-03T21:10:11.124Z,9.40
2022-11-03T21:12:37.483Z,9.63
2022-11-03T21:15:26.698Z,9.52
2022-11-03T21:18:15.249Z,10.32
2022-11-03T21:20:41.535Z,11.13
2022-11-03T21:23:15.186Z,10.65
2022-11-03T21:25:41.468Z,10.95
2022-11-03T21:28:08.014Z,7.40
2022-11-03T21:30:34.479Z,8.45
2022-11-03T21:33:00.724Z,9.30
2022-11-03T21:35:27.007Z,9.07
2022-11-03T21:37:53.276Z,8.93
2022-11-03T21:40:19.598Z,10.00
2022-11-03T21:43:04.684Z,7.80
2022-11-03T21:45:31.285Z,7.53
2022-11-03T21:48:16.801Z,7.13
2022-11-03T21:50:43.560Z,7.75
2022-11-03T21:53:10.324Z,8.30
2022-11-03T21:55:36.925Z,8.38
2022-11-03T21:58:03.633Z,7.97
2022-11-03T22:00:30.421Z,6.35
2022-11-03T22:02:56.682Z,7.07
2022-11-03T22:05:24.279Z,5.10
2022-11-03T22:07:50.567Z,4.32
2022-11-03T22:10:17.850Z,3.97
2022-11-03T22:12:44.199Z,4.22
2022-11-03T22:15:29.138Z,4.10
2022-11-03T22:18:08.216Z,4.13
2022-11-03T22:20:55.151Z,4.45
2022-11-03T22:23:39.965Z,4.88
2022-11-03T22:26:27.530Z,4.85
2022-11-03T22:29:14.284Z,5.00
2022-11-03T22:31:40.611Z,5.57
2022-11-03T22:34:25.641Z,7.53
2022-11-03T22:36:52.176Z,5.72
2022-11-03T22:39:37.356Z,5.15
2022-11-03T22:42:22.215Z,4.55
2022-11-03T22:45:06.866Z,4.95
2022-11-03T22:47:33.442Z,4.45
2022-11-03T22:49:59.697Z,5.00
2022-11-03T22:52:25.963Z,4.80
2022-11-03T22:54:52.231Z,4.65
2022-11-03T22:57:18.483Z,4.88
2022-11-03T22:59:44.817Z,4.57
2022-11-03T23:02:11.202Z,4.30
2022-11-03T23:04:37.518Z,3.92
2022-11-03T23:07:03.765Z,3.83
2022-11-03T23:09:30.014Z,3.65
2022-11-03T23:11:56.339Z,3.20
2022-11-03T23:14:23.078Z,3.53
2022-11-03T23:16:49.358Z,3.40
2022-11-03T23:19:34.410Z,3.13
2022-11-03T23:22:00.758Z,3.53
2022-11-03T23:24:45.878Z,4.05
2022-11-03T23:27:12.662Z,4.20
2022-11-03T23:29:39.309Z,4.22
2022-11-03T23:32:05.695Z,4.93
2022-11-03T23:34:31.969Z,3.83
2022-11-03T23:36:58.545Z,3.88
2022-11-03T23:39:24.792Z,3.85
2022-11-03T23:41:51.229Z,4.10
2022-11-03T23:44:17.840Z,4.45
2022-11-03T23:47:03.195Z,4.18
2022-11-03T23:49:29.430Z,3.80
2022-11-03T23:51:55.920Z,4.10
2022-11-03T23:54:22.188Z,4.45
2022-11-03T23:57:08.582Z,4.40
2022-11-03T23:59:35.105Z,3.65
